TFM - Tactical Decision Aid
ID: Runway Winds: CIG/VIS Threshold:

KMCO - Orlando Intl, FL, US

Updated at: 1130 UTC 25 Jun 2019
Latest TAF at: 1127 UTC 25 Jun 2019

TAF Board

Time1053Z 25/12Z 25/13Z 25/14Z 25/15Z 25/16Z 25/17Z 25/18Z 25/19Z 25/20Z 25/21Z 25/22Z 25/23Z 26/00Z>>
Type OBS PRVL PRVL PRVL PRVL PRVL PRVL PRVL PRVL PRVL PRVL PRVL PRVL PRVL
VIS 10 >6 >6 >6 >6 >6 >6 >6 >6 >6 >6 >6 >6 >6
CIG -- -- -- -- -- -- -- -- -- -- -- -- -- --
Cover CLR FEW FEW FEW SCT SCT SCT SCT SCT SCT SCT SCT SCT SCT
FltCat VFR VFR VFR VFR VFR VFR VFR VFR VFR VFR VFR VFR VFR VFR
WX -- -- -- -- -- -- -- -- -- -- VCTS VCTS VCTS VCTS
WDir 260 270 270 270 300 300 300 300 300 300 320 320 320 320
WSpd 3 3 3 3 8 8 8 8 8 8 9 9 9 9
WGst -- -- -- -- -- -- -- -- -- -- -- -- -- --

TDA Impact Legend

  None Marginal Slight Moderate High
Visibility (sm) >5 3≤X≤5 1≤X<3 0.5≤X<1 <0.5
Ceiling (100 ft) >30 10≤X≤30 4≤X<10 2≤X<4 <2
Wind Speed (kt) <15 15≤X<25 25≤X<30 ≥30
Wind Gust (kt) <15 15≤X<25 25≤X<35 ≥35
Weather No Wx Reported VCTS -TS,-FZRA TS,FZRA +TS,+FZRA
TAF
KMCO 251127Z 2512/2618 27003KT P6SM FEW250
  FM251500 30008KT P6SM SCT040 SCT250
  FM252100 32009KT P6SM VCTS SCT050CB SCT250
  FM260300 26004KT P6SM SCT080 BKN250
  FM261700 05006KT P6SM SCT035 SCT250


METAR
KMCO 251053Z 26003KT 10SM CLR 26/24 A3005 RMK AO2 SLP173 T02610239 $
KMCO 250953Z 00000KT 10SM FEW250 25/23 A3003 RMK AO2 SLP166 T02500233 $
KMCO 250853Z 27004KT 10SM FEW250 26/23 A3001 RMK AO2 SLP159 T02560233 55005 $

Radar Display
Forecast Discussion